Time;durP1;ratioP1;P1;durP2;ratioP2;P2;SDS_P1;SDS_P2;PMS_P1;PMS_P2;Temp;Humidity;BMP_temperature;BMP_pressure;BME280_temperature;BME280_humidity;BME280_pressure;Samples;Min_cycle;Max_cycle;Signal;HPM_P1;HPM_P2
2022/07/23 00:00:15;;;;;;;4.97;3.28;;;15.70;99.90;;;;;;5014824;28;20696;-95
2022/07/23 00:02:40;;;;;;;4.97;3.13;;;15.80;99.90;;;;;;5015517;28;20187;-95
2022/07/23 00:05:06;;;;;;;5.15;3.20;;;15.70;99.90;;;;;;5033655;28;20187;-95
2022/07/23 00:07:33;;;;;;;7.10;3.30;;;15.70;99.90;;;;;;5021439;28;20179;-94
2022/07/23 00:09:59;;;;;;;4.55;2.90;;;15.80;99.90;;;;;;5028137;28;20186;-95
2022/07/23 00:12:26;;;;;;;3.85;2.90;;;15.80;99.90;;;;;;5037497;28;20555;-95
2022/07/23 00:14:52;;;;;;;3.28;2.83;;;15.90;99.90;;;;;;5018281;28;20953;-96
2022/07/23 00:17:18;;;;;;;5.22;3.10;;;15.80;99.90;;;;;;5033196;28;20178;-96
2022/07/23 00:19:43;;;;;;;5.35;3.50;;;15.80;99.90;;;;;;5035064;28;20186;-94
2022/07/23 00:22:28;;;;;;;4.82;3.40;;;15.80;99.90;;;;;;5033827;28;20182;-95
2022/07/23 00:24:55;;;;;;;5.47;2.83;;;15.80;99.90;;;;;;5030484;28;20167;-95
2022/07/23 00:27:20;;;;;;;4.13;3.17;;;15.70;99.90;;;;;;5016087;28;20178;-95
2022/07/23 00:29:46;;;;;;;5.68;3.35;;;15.70;99.90;;;;;;5033699;28;20182;-96
2022/07/23 00:32:51;;;;;;;4.22;2.67;;;15.60;99.90;;;;;;5031134;28;20232;-96
2022/07/23 00:35:19;;;;;;;4.13;3.17;;;15.60;99.90;;;;;;5044268;28;20178;-96
2022/07/23 00:37:45;;;;;;;4.57;3.20;;;15.60;99.90;;;;;;5031921;28;20717;-96
2022/07/23 00:40:11;;;;;;;4.63;2.90;;;15.50;99.90;;;;;;5025117;28;20186;-95
2022/07/23 00:42:38;;;;;;;5.55;3.08;;;15.50;99.90;;;;;;5038855;28;20186;-96
2022/07/23 00:45:04;;;;;;;5.07;3.33;;;15.40;99.90;;;;;;5031473;28;20617;-96
2022/07/23 00:47:29;;;;;;;5.93;3.45;;;15.30;99.90;;;;;;5036164;28;20198;-95
2022/07/23 00:49:55;;;;;;;3.33;3.03;;;15.30;99.90;;;;;;5023927;28;20185;-94
2022/07/23 00:52:47;;;;;;;5.70;3.20;;;15.40;99.90;;;;;;5029508;28;20187;-95
2022/07/23 00:55:13;;;;;;;6.03;3.40;;;15.40;99.90;;;;;;5029763;28;20186;-95
2022/07/23 00:57:40;;;;;;;5.53;3.00;;;15.40;99.90;;;;;;5019106;28;20191;-96
2022/07/23 01:00:09;;;;;;;3.75;3.35;;;15.30;99.90;;;;;;5037398;28;20511;-95
2022/07/23 01:02:37;;;;;;;4.95;3.88;;;15.40;99.90;;;;;;5038304;28;20175;-95
2022/07/23 01:05:03;;;;;;;6.30;3.60;;;15.30;99.90;;;;;;5036830;28;20188;-95
2022/07/23 01:07:29;;;;;;;4.68;3.33;;;15.40;99.90;;;;;;5029446;28;20183;-95
2022/07/23 01:09:55;;;;;;;4.53;3.25;;;15.40;99.90;;;;;;5034390;28;20191;-95
2022/07/23 01:12:23;;;;;;;5.05;3.45;;;15.30;99.90;;;;;;5033683;28;20622;-95
2022/07/23 01:14:59;;;;;;;5.32;3.83;;;15.40;99.90;;;;;;5023650;28;20190;-96
2022/07/23 01:17:25;;;;;;;6.63;3.72;;;15.30;99.90;;;;;;5032329;28;20628;-95
2022/07/23 01:19:51;;;;;;;4.88;3.67;;;15.30;99.90;;;;;;5037350;28;20617;-94
2022/07/23 01:22:19;;;;;;;5.60;3.72;;;15.30;99.90;;;;;;5026081;28;20197;-95
2022/07/23 01:24:45;;;;;;;9.73;4.07;;;15.30;99.90;;;;;;5028234;28;20229;-95
2022/07/23 01:27:12;;;;;;;6.57;3.85;;;15.40;99.90;;;;;;5026548;28;20318;-95
2022/07/23 01:29:38;;;;;;;10.07;3.85;;;15.40;99.90;;;;;;5036638;28;20310;-95
2022/07/23 01:32:22;;;;;;;5.85;3.83;;;15.40;99.90;;;;;;5028073;28;20218;-95
2022/07/23 01:34:48;;;;;;;5.13;3.70;;;15.30;99.90;;;;;;5028609;28;20210;-94
2022/07/23 01:37:13;;;;;;;7.15;4.50;;;15.30;99.90;;;;;;5034830;28;20248;-95
2022/07/23 01:39:39;;;;;;;21.90;5.20;;;15.30;99.90;;;;;;5026817;28;20183;-95
2022/07/23 01:42:12;;;;;;;6.40;3.80;;;15.20;99.90;;;;;;5018342;28;20171;-95
2022/07/23 01:44:37;;;;;;;7.35;4.50;;;15.20;99.90;;;;;;5036207;28;20182;-95
2022/07/23 01:47:03;;;;;;;5.05;3.88;;;15.20;99.90;;;;;;5018638;28;20225;-96
2022/07/23 01:49:29;;;;;;;7.15;4.30;;;15.20;99.90;;;;;;5019492;28;20187;-96
2022/07/23 01:52:00;;;;;;;6.25;4.53;;;15.20;99.90;;;;;;5026926;28;20190;-95
2022/07/23 01:54:34;;;;;;;6.35;4.50;;;15.20;99.90;;;;;;5025844;28;20185;-95
2022/07/23 01:57:00;;;;;;;5.28;4.18;;;15.10;99.90;;;;;;5033326;28;20186;-95
2022/07/23 01:59:27;;;;;;;6.28;4.10;;;15.10;99.90;;;;;;5028008;28;20191;-96
2022/07/23 02:01:54;;;;;;;5.07;4.10;;;15.20;99.90;;;;;;5022417;28;20183;-96
2022/07/23 02:04:24;;;;;;;5.00;3.80;;;15.20;99.90;;;;;;5016610;28;20191;-96
2022/07/23 02:06:51;;;;;;;5.15;4.22;;;15.10;99.90;;;;;;5022126;28;20210;-94
2022/07/23 02:09:17;;;;;;;6.50;4.43;;;15.00;99.90;;;;;;5036305;28;20277;-96
2022/07/23 02:11:42;;;;;;;6.50;4.75;;;15.00;99.90;;;;;;5030955;28;20533;-96
2022/07/23 02:14:08;;;;;;;6.10;4.25;;;15.10;99.90;;;;;;5037353;28;20246;-95
2022/07/23 02:16:34;;;;;;;7.47;4.68;;;15.00;99.90;;;;;;5028707;28;20325;-95
2022/07/23 02:18:59;;;;;;;5.95;4.70;;;15.00;99.90;;;;;;5018089;28;20179;-95
2022/07/23 02:21:25;;;;;;;6.93;3.95;;;15.00;99.90;;;;;;5018313;28;20195;-96
2022/07/23 02:23:51;;;;;;;8.63;4.60;;;15.00;99.90;;;;;;5029739;28;20268;-95
2022/07/23 02:26:16;;;;;;;4.88;3.72;;;15.00;99.90;;;;;;5037365;28;20229;-95
2022/07/23 02:28:42;;;;;;;5.65;4.05;;;15.00;99.90;;;;;;5036600;28;20178;-95
2022/07/23 02:31:08;;;;;;;7.15;4.30;;;14.90;99.90;;;;;;5036784;28;20198;-96
2022/07/23 02:33:37;;;;;;;6.00;4.45;;;14.90;99.90;;;;;;5033382;28;20179;-95
2022/07/23 02:38:38;;;;;;;6.90;4.35;;;14.90;99.90;;;;;;5094977;23;20239;-87
2022/07/23 02:41:04;;;;;;;5.43;4.70;;;14.80;99.90;;;;;;4977982;28;20178;-89
2022/07/23 02:43:29;;;;;;;5.57;4.28;;;14.80;99.90;;;;;;4975485;28;20611;-88
2022/07/23 02:45:55;;;;;;;5.53;4.22;;;14.80;99.90;;;;;;4993231;28;20199;-87
2022/07/23 02:48:37;;;;;;;5.38;3.90;;;14.80;99.90;;;;;;4981564;28;20196;-88
2022/07/23 02:51:03;;;;;;;6.00;4.70;;;14.70;99.90;;;;;;4983712;28;20184;-90
2022/07/23 02:53:28;;;;;;;8.55;5.25;;;14.70;99.90;;;;;;4982094;28;20237;-95
2022/07/23 02:55:54;;;;;;;6.97;5.38;;;14.70;99.90;;;;;;4982890;28;20184;-87
2022/07/23 02:58:24;;;;;;;9.95;5.50;;;14.60;99.90;;;;;;4995397;28;20192;-88
2022/07/23 03:00:50;;;;;;;6.70;5.35;;;14.60;99.90;;;;;;4995427;28;20179;-90
2022/07/23 03:03:16;;;;;;;6.82;5.63;;;14.70;99.90;;;;;;4995330;28;20505;-92
2022/07/23 03:05:41;;;;;;;7.07;5.05;;;14.70;99.90;;;;;;4995278;28;20215;-92
2022/07/23 03:08:08;;;;;;;7.68;5.00;;;14.60;99.90;;;;;;4977800;28;20194;-91
2022/07/23 03:10:34;;;;;;;7.25;5.22;;;14.60;99.90;;;;;;4976394;28;20188;-91
2022/07/23 03:12:59;;;;;;;6.03;4.65;;;14.60;99.90;;;;;;4976097;28;20185;-91
2022/07/23 03:15:25;;;;;;;7.88;5.20;;;14.60;99.90;;;;;;4977259;28;20179;-92
2022/07/23 03:17:50;;;;;;;6.32;5.25;;;14.60;99.90;;;;;;4983647;28;20707;-91
2022/07/23 03:20:29;;;;;;;10.18;5.18;;;14.60;99.90;;;;;;4984631;28;20177;-92
2022/07/23 03:22:55;;;;;;;5.68;4.75;;;14.60;99.90;;;;;;4988765;28;20195;-93
2022/07/23 03:25:21;;;;;;;6.15;4.70;;;14.60;99.90;;;;;;4983918;28;20242;-91
2022/07/23 03:27:46;;;;;;;5.47;4.85;;;14.60;99.90;;;;;;4995727;28;20527;-92
2022/07/23 03:30:12;;;;;;;5.88;4.70;;;14.70;99.90;;;;;;4995645;28;20638;-92
2022/07/23 03:32:38;;;;;;;7.25;4.90;;;14.70;99.90;;;;;;4994799;28;20180;-91
2022/07/23 03:35:04;;;;;;;6.82;5.38;;;14.70;99.90;;;;;;4986305;28;20214;-92
2022/07/23 03:37:30;;;;;;;6.38;4.93;;;14.70;99.90;;;;;;4976784;28;20222;-92
2022/07/23 03:39:57;;;;;;;8.05;5.20;;;14.70;99.90;;;;;;4989262;28;20184;-87
2022/07/23 03:42:22;;;;;;;8.23;5.82;;;14.80;99.90;;;;;;4990157;28;20192;-89
2022/07/23 03:44:48;;;;;;;6.72;5.28;;;14.80;99.90;;;;;;4975707;28;20638;-89
2022/07/23 03:47:13;;;;;;;6.85;5.07;;;14.80;99.90;;;;;;4976332;28;20219;-90
2022/07/23 03:49:41;;;;;;;7.90;5.47;;;14.70;99.90;;;;;;4975362;28;20184;-92
2022/07/23 03:52:07;;;;;;;7.65;5.32;;;14.80;99.90;;;;;;4994147;28;20195;-88
2022/07/23 03:54:32;;;;;;;9.85;5.10;;;14.80;99.90;;;;;;4994791;28;20184;-89
2022/07/23 03:56:58;;;;;;;6.30;4.90;;;14.90;99.90;;;;;;4983206;28;20192;-90
2022/07/23 03:59:25;;;;;;;9.70;5.05;;;14.90;99.90;;;;;;4976630;28;20177;-89
2022/07/23 04:01:51;;;;;;;7.50;5.50;;;14.90;99.90;;;;;;4975699;28;20177;-88
2022/07/23 04:04:16;;;;;;;9.45;5.28;;;14.90;99.90;;;;;;4975293;28;20181;-89
2022/07/23 04:06:42;;;;;;;9.60;5.18;;;15.00;99.90;;;;;;4983232;28;20285;-88
2022/07/23 04:09:27;;;;;;;7.68;5.60;;;15.00;99.90;;;;;;4995428;28;20219;-89
2022/07/23 04:11:53;;;;;;;6.95;5.43;;;15.00;99.90;;;;;;4995430;28;20172;-87
2022/07/23 04:14:19;;;;;;;7.40;5.85;;;15.10;99.90;;;;;;4994119;28;20188;-88
2022/07/23 04:16:44;;;;;;;6.47;4.63;;;15.00;99.90;;;;;;4994652;28;20179;-88
2022/07/23 04:19:30;;;;;;;7.55;4.97;;;15.10;99.90;;;;;;4995012;28;20577;-89
2022/07/23 04:21:57;;;;;;;11.35;5.72;;;15.10;99.90;;;;;;4965666;28;20180;-89
2022/07/23 04:24:23;;;;;;;7.05;5.25;;;15.10;99.90;;;;;;4983420;28;20181;-88
2022/07/23 04:26:48;;;;;;;8.15;5.13;;;15.10;99.90;;;;;;4974897;28;20220;-89
2022/07/23 04:29:14;;;;;;;8.20;4.97;;;15.20;99.90;;;;;;4975372;28;20252;-89
2022/07/23 04:31:40;;;;;;;7.15;5.00;;;15.10;99.90;;;;;;4985533;28;20286;-89
2022/07/23 04:34:05;;;;;;;9.32;4.97;;;15.10;99.90;;;;;;4974310;28;20287;-89
2022/07/23 04:36:31;;;;;;;9.95;4.95;;;15.20;99.90;;;;;;4975139;28;20283;-92
2022/07/23 04:38:57;;;;;;;6.28;4.82;;;15.20;99.90;;;;;;4975135;28;20196;-91
2022/07/23 04:41:23;;;;;;;7.68;5.13;;;15.20;99.90;;;;;;4976308;28;20222;-90
2022/07/23 04:43:49;;;;;;;8.55;5.38;;;15.30;99.90;;;;;;4975280;28;20177;-89
2022/07/23 04:46:15;;;;;;;6.65;5.35;;;15.20;99.90;;;;;;4988254;28;20230;-90
2022/07/23 04:48:42;;;;;;;10.45;5.63;;;15.20;99.90;;;;;;4980638;28;20224;-90
2022/07/23 04:51:15;;;;;;;10.88;5.72;;;15.20;99.90;;;;;;4975258;28;20654;-89
2022/07/23 04:53:40;;;;;;;8.32;5.63;;;15.20;99.90;;;;;;4987494;28;20172;-90
2022/07/23 04:56:06;;;;;;;7.22;5.35;;;15.20;99.90;;;;;;4983456;28;20645;-91
2022/07/23 04:58:32;;;;;;;7.40;5.00;;;15.30;99.90;;;;;;4974965;28;20184;-89
2022/07/23 05:01:03;;;;;;;8.98;5.45;;;15.30;99.90;;;;;;4982787;28;20278;-88
2022/07/23 05:03:29;;;;;;;7.28;4.90;;;15.40;99.90;;;;;;4984875;28;20188;-87
2022/07/23 05:05:55;;;;;;;6.65;4.85;;;15.40;99.90;;;;;;4987636;28;20208;-87
2022/07/23 05:08:21;;;;;;;10.18;4.95;;;15.40;99.90;;;;;;4982337;28;20239;-85
2022/07/23 05:10:48;;;;;;;8.35;5.60;;;15.40;99.90;;;;;;4978523;28;20184;-86
2022/07/23 05:13:18;;;;;;;11.88;5.60;;;15.40;99.90;;;;;;4980361;28;20192;-86
2022/07/23 05:15:44;;;;;;;5.85;4.78;;;15.40;99.90;;;;;;4982923;28;20187;-86
2022/07/23 05:18:10;;;;;;;6.80;5.13;;;15.40;99.90;;;;;;4991398;28;20189;-87
2022/07/23 05:20:38;;;;;;;8.07;4.90;;;15.50;99.90;;;;;;4979160;28;20243;-86
2022/07/23 05:23:04;;;;;;;7.82;5.05;;;15.40;99.90;;;;;;4979378;28;20607;-88
2022/07/23 05:25:30;;;;;;;7.90;5.28;;;15.40;99.90;;;;;;4989147;28;20215;-88
2022/07/23 05:27:55;;;;;;;5.20;4.70;;;15.50;99.90;;;;;;4984383;28;20180;-89
2022/07/23 05:30:21;;;;;;;5.72;4.95;;;15.50;99.90;;;;;;4985297;28;20180;-87
2022/07/23 05:32:47;;;;;;;7.72;6.00;;;15.50;99.90;;;;;;4980502;28;20517;-88
2022/07/23 05:35:13;;;;;;;7.88;5.18;;;15.50;99.90;;;;;;4988668;28;20180;-88
2022/07/23 05:37:39;;;;;;;8.07;6.05;;;15.50;99.90;;;;;;4996884;28;20231;-88
2022/07/23 05:40:08;;;;;;;7.40;5.30;;;15.50;99.90;;;;;;4988112;28;20600;-89
2022/07/23 05:42:35;;;;;;;5.88;4.70;;;15.60;99.90;;;;;;4986740;28;20527;-89
2022/07/23 05:45:00;;;;;;;5.97;4.75;;;15.60;99.90;;;;;;4985910;28;20187;-90
2022/07/23 05:47:26;;;;;;;7.88;5.88;;;15.70;99.90;;;;;;4977903;28;20197;-89
2022/07/23 05:49:52;;;;;;;8.70;6.28;;;15.70;99.90;;;;;;4977645;28;20268;-90
2022/07/23 05:52:24;;;;;;;9.05;5.20;;;15.70;99.90;;;;;;4987997;28;20521;-90
2022/07/23 05:54:50;;;;;;;6.40;5.38;;;15.80;99.90;;;;;;4984819;28;20196;-90
2022/07/23 05:57:15;;;;;;;5.85;5.25;;;15.90;99.90;;;;;;4977633;28;20702;-91
2022/07/23 05:59:41;;;;;;;8.32;5.30;;;15.90;99.90;;;;;;4973207;28;20173;-91
2022/07/23 06:02:07;;;;;;;6.55;4.93;;;16.00;99.90;;;;;;4980664;28;20188;-91
2022/07/23 06:04:32;;;;;;;6.90;5.20;;;16.00;99.90;;;;;;4996569;28;20180;-91
2022/07/23 06:06:58;;;;;;;8.90;5.90;;;16.00;99.90;;;;;;4987699;28;20330;-91
2022/07/23 06:09:24;;;;;;;8.27;5.50;;;16.00;99.90;;;;;;4983447;28;20192;-90
2022/07/23 06:12:00;;;;;;;7.55;4.47;;;16.10;99.90;;;;;;4991511;28;20196;-92
2022/07/23 06:14:26;;;;;;;4.97;4.47;;;16.20;99.90;;;;;;4996212;28;20199;-92
2022/07/23 06:16:52;;;;;;;5.32;4.50;;;16.30;99.90;;;;;;4996149;28;20200;-91
2022/07/23 06:19:17;;;;;;;5.70;3.70;;;16.30;99.90;;;;;;4996239;28;20693;-92
2022/07/23 06:21:53;;;;;;;5.43;3.92;;;16.30;99.90;;;;;;4981947;28;20180;-92
2022/07/23 06:24:19;;;;;;;7.88;4.75;;;16.30;99.90;;;;;;4980436;28;20195;-92
2022/07/23 06:26:44;;;;;;;8.15;4.47;;;16.30;99.90;;;;;;4985311;28;20181;-91
2022/07/23 06:29:10;;;;;;;6.43;4.05;;;16.30;99.90;;;;;;4982292;28;20223;-92
2022/07/23 06:31:38;;;;;;;9.73;4.47;;;16.30;99.90;;;;;;4986166;28;20176;-92
2022/07/23 06:34:04;;;;;;;5.60;3.97;;;16.30;99.90;;;;;;4976981;28;20189;-92
2022/07/23 06:36:29;;;;;;;5.50;3.90;;;16.40;99.90;;;;;;4977089;28;20212;-89
2022/07/23 06:38:55;;;;;;;6.85;3.63;;;16.40;99.90;;;;;;4985099;28;20583;-91
2022/07/23 06:41:28;;;;;;;4.47;3.35;;;16.50;99.90;;;;;;4984694;28;20199;-94
2022/07/23 06:43:54;;;;;;;5.70;3.78;;;16.50;99.90;;;;;;4987521;28;20168;-92
2022/07/23 06:46:20;;;;;;;3.97;3.10;;;16.50;99.90;;;;;;4997224;28;20292;-92
2022/07/23 06:48:46;;;;;;;4.13;3.00;;;16.60;99.90;;;;;;4996943;28;20642;-92
2022/07/23 06:51:13;;;;;;;5.82;3.20;;;16.70;99.90;;;;;;4987678;28;20234;-91
2022/07/23 06:53:38;;;;;;;5.88;2.67;;;16.70;99.90;;;;;;4978257;28;20188;-93
2022/07/23 06:56:04;;;;;;;4.28;2.58;;;16.70;99.90;;;;;;4977281;28;20212;-92
2022/07/23 06:58:30;;;;;;;4.13;2.78;;;16.80;99.90;;;;;;4976473;28;20271;-93
2022/07/23 07:00:56;;;;;;;7.43;3.35;;;16.90;99.90;;;;;;4977347;28;20193;-92
2022/07/23 07:03:35;;;;;;;4.40;2.70;;;17.00;99.90;;;;;;4995831;28;20207;-93
2022/07/23 07:06:02;;;;;;;5.50;2.95;;;17.10;99.90;;;;;;4968045;28;20185;-92
2022/07/23 07:08:27;;;;;;;6.72;3.15;;;17.20;99.90;;;;;;4984967;28;20192;-91
2022/07/23 07:10:53;;;;;;;7.32;2.90;;;17.40;99.90;;;;;;4978029;28;20184;-90
2022/07/23 07:13:27;;;;;;;3.25;2.28;;;17.50;99.90;;;;;;4985106;28;20188;-92
2022/07/23 07:15:53;;;;;;;5.32;2.60;;;17.60;99.90;;;;;;4984976;28;20204;-90
2022/07/23 07:18:18;;;;;;;3.75;2.65;;;17.80;99.90;;;;;;4984762;28;20220;-92
2022/07/23 07:20:44;;;;;;;3.70;2.50;;;18.00;99.90;;;;;;4991182;28;20576;-89
2022/07/23 07:23:25;;;;;;;4.30;2.97;;;18.10;99.90;;;;;;4989628;28;20279;-91
2022/07/23 07:25:50;;;;;;;5.00;2.47;;;18.30;99.90;;;;;;4990784;28;20171;-91
2022/07/23 07:28:16;;;;;;;4.45;3.00;;;18.50;99.90;;;;;;4983319;28;20208;-90
2022/07/23 07:30:42;;;;;;;4.68;2.92;;;18.70;99.90;;;;;;4969956;28;20224;-91
2022/07/23 07:33:14;;;;;;;6.32;3.25;;;18.70;99.90;;;;;;4976084;28;20215;-92
2022/07/23 07:35:55;;;;;;;7.70;2.97;;;19.00;99.90;;;;;;4976560;28;20232;-90
2022/07/23 07:38:20;;;;;;;5.88;3.08;;;18.90;99.90;;;;;;4975515;28;20250;-91
2022/07/23 07:40:46;;;;;;;4.57;2.60;;;18.80;99.90;;;;;;4976976;28;20180;-90
2022/07/23 07:43:18;;;;;;;7.20;3.20;;;18.70;99.90;;;;;;4982867;28;20219;-90
2022/07/23 07:45:43;;;;;;;8.98;3.08;;;18.60;99.90;;;;;;4986078;28;20187;-90
2022/07/23 07:48:09;;;;;;;6.00;3.65;;;18.70;99.90;;;;;;4979156;28;20184;-92
2022/07/23 07:50:35;;;;;;;5.20;2.38;;;18.90;99.90;;;;;;4983873;28;20188;-90
2022/07/23 07:53:05;;;;;;;4.00;2.25;;;19.10;99.90;;;;;;4995602;28;20176;-92
2022/07/23 07:55:31;;;;;;;3.90;2.00;;;19.20;99.90;;;;;;4978673;28;20517;-91
2022/07/23 07:57:57;;;;;;;2.90;1.98;;;19.40;99.90;;;;;;4975976;28;20212;-91
2022/07/23 08:00:23;;;;;;;4.30;2.00;;;19.30;99.90;;;;;;4976774;28;20215;-88
2022/07/23 08:02:55;;;;;;;5.35;2.00;;;19.40;99.90;;;;;;4984205;28;20188;-91
2022/07/23 08:05:23;;;;;;;4.18;2.38;;;19.50;99.90;;;;;;4975450;28;20188;-91
2022/07/23 08:07:49;;;;;;;4.32;2.00;;;19.70;99.30;;;;;;4977031;28;20258;-92
2022/07/23 08:10:15;;;;;;;5.85;2.05;;;19.90;99.90;;;;;;4982996;28;20231;-90
2022/07/23 08:12:58;;;;;;;4.30;1.80;;;19.80;99.00;;;;;;4987372;28;20183;-90
2022/07/23 08:15:28;;;;;;;2.58;1.63;;;19.60;99.70;;;;;;4968306;28;20207;-92
2022/07/23 08:17:54;;;;;;;3.80;1.67;;;19.40;99.50;;;;;;4983332;28;20633;-91
2022/07/23 08:20:23;;;;;;;5.55;2.05;;;19.20;99.50;;;;;;4980375;28;20176;-93
2022/07/23 08:22:55;;;;;;;2.45;1.30;;;19.10;99.90;;;;;;4979347;28;20255;-93
2022/07/23 08:25:25;;;;;;;2.67;1.50;;;19.10;99.90;;;;;;4985631;28;20183;-92
2022/07/23 08:27:51;;;;;;;4.00;1.60;;;19.00;99.90;;;;;;4980591;28;20238;-93
2022/07/23 08:30:17;;;;;;;2.33;1.42;;;19.00;99.90;;;;;;4979936;28;20214;-92
2022/07/23 08:33:00;;;;;;;3.47;1.38;;;19.20;99.90;;;;;;4986310;28;20191;-91
2022/07/23 08:35:36;;;;;;;3.42;1.48;;;19.50;99.70;;;;;;4980442;28;20768;-90
2022/07/23 08:38:05;;;;;;;3.33;1.40;;;20.00;99.90;;;;;;4985601;28;20667;-93
2022/07/23 08:40:34;;;;;;;4.20;1.38;;;20.10;97.70;;;;;;4979970;28;20195;-88
2022/07/23 08:43:03;;;;;;;3.60;1.52;;;20.00;97.90;;;;;;4984279;28;20188;-90
2022/07/23 08:45:29;;;;;;;3.83;1.48;;;19.80;98.50;;;;;;4982644;28;20177;-88
2022/07/23 08:48:00;;;;;;;2.75;1.15;;;19.80;98.30;;;;;;4983272;28;20180;-93
2022/07/23 08:50:26;;;;;;;3.20;1.40;;;19.90;98.40;;;;;;4992685;28;20188;-90
2022/07/23 08:52:53;;;;;;;1.65;1.20;;;20.10;98.60;;;;;;4982581;28;20188;-89
2022/07/23 08:55:34;;;;;;;2.60;1.20;;;20.10;98.40;;;;;;4984072;28;20211;-89
2022/07/23 08:57:59;;;;;;;1.92;1.42;;;20.20;98.50;;;;;;4980156;28;20195;-89
2022/07/23 09:00:25;;;;;;;3.60;1.20;;;20.30;97.40;;;;;;4982795;28;20177;-88
2022/07/23 09:02:51;;;;;;;3.35;1.35;;;20.50;97.60;;;;;;4994094;28;20192;-89
2022/07/23 09:05:35;;;;;;;3.72;1.35;;;20.80;97.60;;;;;;4977884;28;20239;-89
2022/07/23 09:08:15;;;;;;;2.13;1.20;;;20.90;97.40;;;;;;4980986;28;20191;-91
2022/07/23 09:11:01;;;;;;;1.95;0.98;;;20.90;95.60;;;;;;4983987;28;20188;-91
2022/07/23 09:13:32;;;;;;;3.78;1.50;;;20.60;95.60;;;;;;4987050;28;20598;-89
2022/07/23 09:16:12;;;;;;;2.88;1.52;;;20.40;96.80;;;;;;4985063;28;20208;-90
2022/07/23 09:18:47;;;;;;;1.80;1.00;;;20.60;96.90;;;;;;4983830;28;20246;-89
2022/07/23 09:21:28;;;;;;;2.58;1.15;;;21.00;97.20;;;;;;4983756;28;20686;-89
2022/07/23 09:24:11;;;;;;;3.20;1.20;;;21.50;96.20;;;;;;4985890;28;20198;-89
2022/07/23 09:26:43;;;;;;;3.20;1.25;;;21.70;95.20;;;;;;4984761;28;20184;-90
2022/07/23 09:29:24;;;;;;;3.75;0.98;;;21.50;94.60;;;;;;4983140;28;20207;-86
2022/07/23 09:31:55;;;;;;;2.22;1.08;;;21.20;95.00;;;;;;4985762;28;20200;-89
2022/07/23 09:34:28;;;;;;;3.22;1.00;;;21.20;96.10;;;;;;4988256;28;20183;-87
2022/07/23 09:37:08;;;;;;;2.08;0.93;;;21.40;95.20;;;;;;4981452;28;20239;-87
2022/07/23 09:39:33;;;;;;;2.75;0.85;;;21.60;93.90;;;;;;4982255;28;20682;-87
2022/07/23 09:42:21;;;;;;;1.45;0.70;;;21.90;94.40;;;;;;4980910;28;20184;-88
2022/07/23 09:44:58;;;;;;;1.13;0.80;;;22.00;93.30;;;;;;4989114;28;20288;-86
2022/07/23 09:47:29;;;;;;;1.58;0.90;;;21.90;92.80;;;;;;4989019;28;20185;-91
2022/07/23 09:50:08;;;;;;;1.50;0.90;;;21.70;93.10;;;;;;4983875;28;20188;-89
2022/07/23 09:52:48;;;;;;;1.95;0.88;;;21.70;93.40;;;;;;4984730;28;20631;-88
2022/07/23 09:55:30;;;;;;;1.50;0.90;;;21.90;93.00;;;;;;4978762;28;20264;-89
2022/07/23 09:57:56;;;;;;;3.95;1.10;;;22.20;92.40;;;;;;4983029;28;20191;-86
2022/07/23 10:00:23;;;;;;;1.60;0.85;;;22.50;91.50;;;;;;4979758;28;20184;-87
2022/07/23 10:02:49;;;;;;;1.67;0.73;;;22.80;92.70;;;;;;4977531;28;20216;-90
2022/07/23 10:05:17;;;;;;;2.05;1.08;;;22.90;90.70;;;;;;4985359;28;20184;-87
2022/07/23 10:07:43;;;;;;;2.03;1.00;;;22.50;90.70;;;;;;4982677;28;20187;-85
2022/07/23 10:10:11;;;;;;;2.22;0.80;;;22.10;91.20;;;;;;4979488;28;20195;-84
2022/07/23 10:15:06;;;;;;;4.47;0.98;;;21.80;92.70;;;;;;4988222;28;20238;-87
2022/07/23 10:17:32;;;;;;;3.42;1.00;;;22.00;91.80;;;;;;4987845;28;20223;-87
2022/07/23 10:19:58;;;;;;;1.15;0.75;;;22.20;90.90;;;;;;4980481;28;20627;-88
2022/07/23 10:22:34;;;;;;;1.85;0.90;;;22.40;91.40;;;;;;4994517;28;20202;-91
2022/07/23 10:25:19;;;;;;;8.80;1.05;;;22.20;91.00;;;;;;4979024;28;20199;-88
2022/07/23 10:28:06;;;;;;;1.30;0.75;;;21.80;91.10;;;;;;4975650;28;20180;-91
2022/07/23 10:30:52;;;;;;;2.83;0.98;;;21.70;92.00;;;;;;4990535;28;20187;-95
2022/07/23 10:33:50;;;;;;;2.80;0.95;;;21.90;91.00;;;;;;4988116;28;20224;-89
2022/07/23 10:36:45;;;;;;;1.23;0.80;;;22.00;92.20;;;;;;4987107;28;20211;-94
2022/07/23 10:39:34;;;;;;;2.28;0.82;;;22.40;91.90;;;;;;4980126;28;20200;-92
2022/07/23 10:42:10;;;;;;;2.97;1.05;;;22.90;91.60;;;;;;4983759;28;20211;-90
2022/07/23 10:44:42;;;;;;;2.20;1.00;;;23.40;90.10;;;;;;4984642;28;20231;-91
2022/07/23 10:49:49;;;;;;;0.80;0.80;;;23.60;90.30;;;;;;4979281;28;20238;-91
2022/07/23 10:52:14;;;;;;;2.00;0.90;;;23.20;88.80;;;;;;4983757;28;20184;-88
2022/07/23 10:54:43;;;;;;;3.03;1.02;;;22.80;90.00;;;;;;4983899;28;20661;-91
2022/07/23 10:57:21;;;;;;;1.55;0.85;;;22.60;90.70;;;;;;4983512;28;20212;-89
2022/07/23 11:00:08;;;;;;;1.92;0.93;;;22.90;91.10;;;;;;4988682;28;20191;-91
2022/07/23 11:02:35;;;;;;;1.65;0.82;;;23.30;90.70;;;;;;4978378;28;20192;-89
2022/07/23 11:05:09;;;;;;;1.83;0.90;;;23.50;89.20;;;;;;4974778;28;20185;-91
2022/07/23 11:08:16;;;;;;;1.45;0.85;;;23.60;88.30;;;;;;4982505;28;20522;-85
2022/07/23 11:10:46;;;;;;;2.55;1.02;;;23.80;86.40;;;;;;4977216;28;20184;-88
2022/07/23 11:13:24;;;;;;;3.03;1.13;;;24.10;86.10;;;;;;4982525;28;20216;-87
2022/07/23 11:16:13;;;;;;;2.92;0.85;;;24.30;86.50;;;;;;4981078;28;20235;-88
2022/07/23 11:18:42;;;;;;;2.05;1.05;;;24.40;87.30;;;;;;4974992;28;20197;-88
2022/07/23 11:21:23;;;;;;;1.27;0.90;;;24.70;87.30;;;;;;4982105;28;20235;-88
2022/07/23 11:24:11;;;;;;;2.58;0.90;;;24.90;86.90;;;;;;4987250;28;20251;-91
2022/07/23 11:26:42;;;;;;;2.30;0.82;;;24.90;86.20;;;;;;4968577;28;20615;-92
2022/07/23 11:29:33;;;;;;;1.75;0.70;;;24.90;85.70;;;;;;4990169;28;20220;-88
2022/07/23 11:32:01;;;;;;;1.85;0.60;;;25.00;86.20;;;;;;4980282;28;20260;-90
2022/07/23 11:34:41;;;;;;;3.67;1.00;;;25.00;85.90;;;;;;4986233;28;20662;-89
2022/07/23 11:37:12;;;;;;;2.28;0.80;;;25.10;85.30;;;;;;4972413;28;20240;-90
2022/07/23 11:39:38;;;;;;;4.05;1.05;;;25.10;84.60;;;;;;4977612;28;20188;-90
2022/07/23 11:42:07;;;;;;;1.00;0.57;;;25.10;84.30;;;;;;4984016;28;20284;-92
2022/07/23 11:44:37;;;;;;;1.73;0.63;;;25.30;83.00;;;;;;4978191;28;20223;-90
2022/07/23 11:47:24;;;;;;;1.45;0.82;;;25.40;82.10;;;;;;4975620;28;20192;-89
2022/07/23 11:49:58;;;;;;;0.68;0.60;;;25.40;82.60;;;;;;4992874;28;20175;-90
2022/07/23 11:52:25;;;;;;;1.95;0.80;;;25.20;83.10;;;;;;4975243;28;20586;-87
2022/07/23 11:54:55;;;;;;;1.48;0.63;;;25.20;82.90;;;;;;4975557;28;20200;-87
2022/07/23 11:57:31;;;;;;;2.55;1.00;;;25.20;83.40;;;;;;4982895;28;20212;-88
2022/07/23 12:00:06;;;;;;;3.20;0.90;;;25.00;82.80;;;;;;4984830;28;20168;-89
2022/07/23 12:02:32;;;;;;;2.25;1.00;;;24.70;82.90;;;;;;4994444;28;20673;-87
2022/07/23 12:04:57;;;;;;;4.25;1.08;;;24.40;83.50;;;;;;4994359;28;20191;-90
2022/07/23 12:07:33;;;;;;;1.98;1.20;;;24.10;84.00;;;;;;4979801;28;20219;-90
2022/07/23 12:10:09;;;;;;;0.90;0.60;;;24.10;84.80;;;;;;4975073;28;20270;-90
2022/07/23 12:12:37;;;;;;;2.08;0.93;;;24.20;86.10;;;;;;4975690;28;20210;-85
2022/07/23 12:15:05;;;;;;;1.08;0.60;;;24.40;83.00;;;;;;4975500;28;20185;-88
2022/07/23 12:17:37;;;;;;;1.85;0.77;;;24.70;84.90;;;;;;4983221;28;20219;-91
2022/07/23 12:20:05;;;;;;;1.13;0.68;;;24.60;84.00;;;;;;4969451;28;20180;-88
2022/07/23 12:22:49;;;;;;;1.33;0.60;;;24.70;82.40;;;;;;4983548;28;20184;-89
2022/07/23 12:25:20;;;;;;;2.33;0.85;;;24.90;81.90;;;;;;4975554;28;20191;-87
2022/07/23 12:27:57;;;;;;;2.50;0.80;;;25.00;82.30;;;;;;4978934;28;20569;-93
2022/07/23 12:30:25;;;;;;;2.05;0.85;;;24.80;82.10;;;;;;4995591;28;20191;-89
2022/07/23 12:32:54;;;;;;;1.17;0.65;;;24.70;82.80;;;;;;4991055;28;20251;-88
2022/07/23 12:35:21;;;;;;;1.52;0.70;;;24.70;82.70;;;;;;4977648;28;20191;-89
2022/07/23 12:37:52;;;;;;;3.35;0.70;;;24.90;83.20;;;;;;4988635;28;20330;-91
2022/07/23 12:40:23;;;;;;;1.17;0.68;;;25.30;82.10;;;;;;4992388;28;20175;-86
2022/07/23 12:42:55;;;;;;;1.88;0.60;;;25.30;81.50;;;;;;4992940;28;20200;-86
2022/07/23 12:45:20;;;;;;;4.60;0.85;;;25.10;80.10;;;;;;4980689;28;20175;-91
2022/07/23 12:48:06;;;;;;;6.18;0.70;;;24.70;79.50;;;;;;4992948;28;20184;-88
2022/07/23 12:50:33;;;;;;;0.80;0.60;;;24.40;81.20;;;;;;4985328;28;20342;-86
2022/07/23 12:53:22;;;;;;;1.92;0.80;;;24.50;83.10;;;;;;4993813;28;20207;-87
2022/07/23 12:55:49;;;;;;;1.20;0.60;;;24.60;82.10;;;;;;4985380;28;20216;-88
2022/07/23 12:58:18;;;;;;;1.92;0.52;;;24.90;83.10;;;;;;4983224;28;20184;-86
2022/07/23 13:00:56;;;;;;;2.38;0.70;;;25.30;81.10;;;;;;4983622;28;20176;-85
2022/07/23 13:03:24;;;;;;;1.33;0.65;;;25.50;80.10;;;;;;4986877;28;20185;-87
2022/07/23 13:05:50;;;;;;;1.35;0.82;;;25.40;78.60;;;;;;4977014;28;20227;-87